createdAt,value
2017-10-02T00:00:58.636Z,10.97
2017-10-02T00:03:26.151Z,7.07
2017-10-02T00:05:53.666Z,10.33
2017-10-02T00:08:21.134Z,9.67
2017-10-02T00:10:48.610Z,7.63
2017-10-02T00:13:16.064Z,6.47
2017-10-02T00:15:43.595Z,12.20
2017-10-02T00:18:11.156Z,7.97
2017-10-02T00:20:38.713Z,6.73
2017-10-02T00:23:06.184Z,7.23
2017-10-02T00:25:33.744Z,10.00
2017-10-02T00:28:01.227Z,9.70
2017-10-02T00:30:28.752Z,10.90
2017-10-02T00:32:56.214Z,9.33
2017-10-02T00:35:23.764Z,7.10
2017-10-02T00:37:51.222Z,8.67
2017-10-02T00:40:18.775Z,7.20
2017-10-02T00:42:46.233Z,9.93
2017-10-02T00:45:13.688Z,9.10
2017-10-02T00:47:41.170Z,9.83
2017-10-02T00:50:08.642Z,13.03
2017-10-02T00:52:36.121Z,15.10
2017-10-02T00:55:03.576Z,15.53
2017-10-02T00:57:31.044Z,11.53
2017-10-02T00:59:58.544Z,9.77
2017-10-02T01:02:25.998Z,11.50
2017-10-02T01:04:53.478Z,14.90
2017-10-02T01:07:20.943Z,11.27
2017-10-02T01:09:48.489Z,19.40
2017-10-02T01:12:15.960Z,8.97
2017-10-02T01:14:43.431Z,10.73
2017-10-02T01:17:10.895Z,9.87
2017-10-02T01:19:38.420Z,12.73
2017-10-02T01:22:05.899Z,11.80
2017-10-02T01:24:33.428Z,11.80
2017-10-02T01:27:00.897Z,11.63
2017-10-02T01:29:28.373Z,10.77
2017-10-02T01:31:55.846Z,8.90
2017-10-02T01:34:23.331Z,9.33
2017-10-02T01:36:50.786Z,7.83
2017-10-02T01:39:18.246Z,13.40
2017-10-02T01:41:45.726Z,9.00
2017-10-02T01:44:13.180Z,10.13
2017-10-02T01:46:40.658Z,9.10
2017-10-02T01:49:08.125Z,10.93
2017-10-02T01:51:35.602Z,9.70
2017-10-02T01:54:03.056Z,17.37
2017-10-02T01:56:30.573Z,12.10
2017-10-02T01:58:58.128Z,12.97
2017-10-02T02:01:25.682Z,9.70
2017-10-02T02:03:53.146Z,6.80
2017-10-02T02:06:20.602Z,12.60
2017-10-02T02:08:48.078Z,8.77
2017-10-02T02:11:15.535Z,9.37
2017-10-02T02:13:42.997Z,10.33
2017-10-02T02:16:10.461Z,7.50
2017-10-02T02:18:37.924Z,8.87
2017-10-02T02:21:05.434Z,9.83
2017-10-02T02:23:32.999Z,10.97
2017-10-02T02:26:00.462Z,7.83
2017-10-02T02:28:28.019Z,16.80
2017-10-02T02:30:55.515Z,9.93
2017-10-02T02:33:22.967Z,11.57
2017-10-02T02:35:50.444Z,10.07
2017-10-02T02:38:17.915Z,15.43
2017-10-02T02:40:45.380Z,10.00
2017-10-02T02:43:12.862Z,7.77
2017-10-02T02:45:40.315Z,6.97
2017-10-02T02:48:07.799Z,9.90
2017-10-02T02:50:35.260Z,8.40
2017-10-02T02:53:02.720Z,14.80
2017-10-02T02:55:30.247Z,10.10
2017-10-02T02:57:57.702Z,12.90
2017-10-02T03:00:25.188Z,16.03
2017-10-02T03:02:52.658Z,12.13
2017-10-02T03:05:20.127Z,9.07
2017-10-02T03:07:47.600Z,17.37
2017-10-02T03:10:15.086Z,8.80
2017-10-02T03:12:42.561Z,8.00
2017-10-02T03:15:10.014Z,9.40
2017-10-02T03:17:37.518Z,8.87
2017-10-02T03:20:04.988Z,12.07
2017-10-02T03:22:32.500Z,13.30
2017-10-02T03:24:59.987Z,10.40
2017-10-02T03:27:27.504Z,11.93
2017-10-02T03:29:54.973Z,8.70
2017-10-02T03:32:22.435Z,12.57
2017-10-02T03:34:49.902Z,8.80
2017-10-02T03:37:17.374Z,9.17
2017-10-02T03:39:44.840Z,13.47
2017-10-02T03:42:12.334Z,13.63
2017-10-02T03:44:39.810Z,11.23
2017-10-02T03:47:07.267Z,17.57
2017-10-02T03:49:34.734Z,12.90
2017-10-02T03:52:02.212Z,10.70
2017-10-02T03:54:29.699Z,9.47
2017-10-02T03:56:57.183Z,10.43
2017-10-02T03:59:24.647Z,13.00
2017-10-02T04:01:52.143Z,12.77
2017-10-02T04:04:19.647Z,10.13
2017-10-02T04:06:47.189Z,6.57
2017-10-02T04:09:14.646Z,17.00
2017-10-02T04:11:42.123Z,13.07
2017-10-02T04:14:09.687Z,11.60
2017-10-02T04:16:37.137Z,14.20
2017-10-02T04:19:04.599Z,9.00
2017-10-02T04:21:32.054Z,19.33
2017-10-02T04:23:59.573Z,13.10
2017-10-02T04:26:27.027Z,9.77
2017-10-02T04:28:54.485Z,12.47
2017-10-02T04:31:21.954Z,11.77
2017-10-02T04:33:49.407Z,15.10
2017-10-02T04:36:16.868Z,9.90
2017-10-02T04:38:44.323Z,11.33
2017-10-02T04:41:11.790Z,11.63
2017-10-02T04:43:39.238Z,10.63
2017-10-02T04:46:06.738Z,6.70
2017-10-02T04:48:34.195Z,7.80
2017-10-02T04:51:01.658Z,9.30
2017-10-02T04:53:29.144Z,8.00
2017-10-02T04:55:56.607Z,11.30
2017-10-02T04:58:24.123Z,15.93
2017-10-02T05:00:51.579Z,7.03
2017-10-02T05:03:19.067Z,11.37
2017-10-02T05:05:46.532Z,10.17
2017-10-02T05:08:14.376Z,10.00
2017-10-02T05:10:41.844Z,6.77
2017-10-02T05:13:09.377Z,13.90
2017-10-02T05:15:36.858Z,14.37
2017-10-02T05:18:04.428Z,11.33
2017-10-02T05:20:31.949Z,7.60
2017-10-02T05:22:59.523Z,8.30
2017-10-02T05:25:26.995Z,9.47
2017-10-02T05:27:54.478Z,7.20
2017-10-02T05:30:21.948Z,10.80
2017-10-02T05:32:49.414Z,15.43
2017-10-02T05:35:16.913Z,7.10
2017-10-02T05:37:44.412Z,10.70
2017-10-02T05:40:11.877Z,9.57
2017-10-02T05:42:39.387Z,12.33
2017-10-02T05:45:06.861Z,9.90
2017-10-02T05:47:34.324Z,8.67
2017-10-02T05:50:01.799Z,9.23
2017-10-02T05:52:29.315Z,7.50
2017-10-02T05:54:56.879Z,5.70
2017-10-02T05:57:27.016Z,11.27
2017-10-02T05:59:54.498Z,5.47
2017-10-02T06:02:21.968Z,7.00
2017-10-02T06:04:49.418Z,7.50
2017-10-02T06:07:16.917Z,9.73
2017-10-02T06:09:44.393Z,21.90
2017-10-02T06:12:11.861Z,13.80
2017-10-02T06:14:39.336Z,11.10
2017-10-02T06:17:06.851Z,11.63
2017-10-02T06:19:34.343Z,12.43
2017-10-02T06:22:01.815Z,7.70
2017-10-02T06:24:29.318Z,16.60
2017-10-02T06:26:56.790Z,19.37
2017-10-02T06:29:24.299Z,10.37
2017-10-02T06:31:51.767Z,16.13
2017-10-02T06:34:19.267Z,7.60
2017-10-02T06:36:46.742Z,22.73
2017-10-02T06:39:14.210Z,11.53
2017-10-02T06:41:41.679Z,9.20
2017-10-02T06:44:09.145Z,13.23
2017-10-02T06:46:36.634Z,10.93
2017-10-02T06:49:04.105Z,8.97
2017-10-02T06:51:31.569Z,10.87
2017-10-02T06:53:59.049Z,13.57
2017-10-02T06:56:26.514Z,10.07
2017-10-02T06:58:54.013Z,14.97
2017-10-02T07:01:21.469Z,14.27
2017-10-02T07:03:48.963Z,10.83
2017-10-02T07:06:16.436Z,10.47
2017-10-02T07:08:43.906Z,10.20
2017-10-02T07:11:11.419Z,11.47
2017-10-02T07:13:38.890Z,17.23
2017-10-02T07:16:06.448Z,16.73
2017-10-02T07:18:33.937Z,14.83
2017-10-02T07:21:01.436Z,10.10
2017-10-02T07:23:29.008Z,21.17
2017-10-02T07:25:56.466Z,9.50
2017-10-02T07:28:24.035Z,20.83
2017-10-02T07:30:51.584Z,12.23
2017-10-02T07:33:19.066Z,16.53
2017-10-02T07:35:46.562Z,12.07
2017-10-02T07:38:14.015Z,12.47
2017-10-02T07:40:41.509Z,13.30
2017-10-02T07:43:09.100Z,14.37
2017-10-02T07:45:36.639Z,9.80
2017-10-02T07:48:04.193Z,12.07
2017-10-02T07:50:31.656Z,12.30
2017-10-02T07:52:59.133Z,14.30
2017-10-02T07:55:26.595Z,12.90
2017-10-02T07:57:54.979Z,18.70
2017-10-02T08:00:22.457Z,21.73
2017-10-02T08:02:49.950Z,10.43
2017-10-02T08:05:17.577Z,19.47
2017-10-02T08:07:45.062Z,16.27
2017-10-02T08:10:12.576Z,10.40
2017-10-02T08:12:40.098Z,15.03
2017-10-02T08:15:07.586Z,12.40
2017-10-02T08:17:35.115Z,9.83
2017-10-02T08:20:02.624Z,10.50
2017-10-02T08:22:30.094Z,10.37
2017-10-02T08:24:57.546Z,20.03
2017-10-02T08:27:25.037Z,17.03
2017-10-02T08:29:52.488Z,11.33
2017-10-02T08:32:20.070Z,11.40
2017-10-02T08:34:47.544Z,12.33
2017-10-02T08:37:15.056Z,12.57
2017-10-02T08:39:42.528Z,11.40
2017-10-02T08:42:10.021Z,16.37
2017-10-02T08:44:37.516Z,9.57
2017-10-02T08:47:04.971Z,10.13
2017-10-02T08:49:32.479Z,13.37
2017-10-02T08:51:59.949Z,7.80
2017-10-02T08:54:27.463Z,8.90
2017-10-02T08:56:54.942Z,10.03
2017-10-02T08:59:22.492Z,9.60
2017-10-02T09:01:49.957Z,7.87
2017-10-02T09:04:17.491Z,8.50
2017-10-02T09:06:45.283Z,17.73
2017-10-02T09:09:12.756Z,11.07
2017-10-02T09:11:40.240Z,10.60
2017-10-02T09:14:07.741Z,11.13
2017-10-02T09:16:35.215Z,16.07
2017-10-02T09:19:02.689Z,10.63
2017-10-02T09:21:30.156Z,8.90
2017-10-02T09:23:57.628Z,11.27
2017-10-02T09:26:25.186Z,9.87
2017-10-02T09:28:52.667Z,6.93
2017-10-02T09:31:20.167Z,7.30
2017-10-02T09:33:47.648Z,5.20
2017-10-02T09:36:15.124Z,4.73
2017-10-02T09:38:42.583Z,3.30
2017-10-02T09:41:10.031Z,4.90
2017-10-02T09:43:37.513Z,3.17
2017-10-02T09:46:04.965Z,3.17
2017-10-02T09:48:32.553Z,8.23
2017-10-02T09:51:00.044Z,3.60
2017-10-02T09:53:27.596Z,3.17
2017-10-02T09:55:55.064Z,3.13
2017-10-02T09:58:22.799Z,3.80
2017-10-02T10:00:50.259Z,4.83
2017-10-02T10:03:17.739Z,3.43
2017-10-02T10:05:45.222Z,3.67
2017-10-02T10:08:12.685Z,4.00
2017-10-02T10:10:40.162Z,3.47
2017-10-02T10:13:07.642Z,6.17
2017-10-02T10:15:35.422Z,2.87
2017-10-02T10:18:02.961Z,2.83
2017-10-02T10:20:30.435Z,11.20
2017-10-02T10:22:57.908Z,2.60
2017-10-02T10:25:25.382Z,3.37
2017-10-02T10:27:52.860Z,2.37
2017-10-02T10:30:20.592Z,2.30
2017-10-02T10:32:48.094Z,3.23
2017-10-02T10:35:15.568Z,2.47
2017-10-02T10:37:43.037Z,3.40
2017-10-02T10:40:10.517Z,3.73
2017-10-02T10:42:37.978Z,2.80
2017-10-02T10:45:05.458Z,4.10
2017-10-02T10:47:32.930Z,2.30
2017-10-02T10:50:00.532Z,3.73
2017-10-02T10:52:28.084Z,4.43
2017-10-02T10:54:55.566Z,2.50
2017-10-02T10:57:23.041Z,7.57
2017-10-02T10:59:50.562Z,4.37
2017-10-02T11:02:18.049Z,11.33
2017-10-02T11:04:45.580Z,3.07
2017-10-02T11:07:13.134Z,7.70
2017-10-02T11:09:40.614Z,3.60
2017-10-02T11:12:08.069Z,3.33
2017-10-02T11:14:35.550Z,2.90
2017-10-02T11:17:03.023Z,3.67
2017-10-02T11:19:30.487Z,3.90
2017-10-02T11:21:57.943Z,2.47
2017-10-02T11:24:25.419Z,3.93
2017-10-02T11:26:52.885Z,2.43
2017-10-02T11:29:20.379Z,4.13
2017-10-02T11:31:47.840Z,2.60
2017-10-02T11:34:15.392Z,3.23
2017-10-02T11:36:42.871Z,3.33
2017-10-02T11:39:10.325Z,2.00
2017-10-02T11:41:37.803Z,2.87
2017-10-02T11:44:05.273Z,2.50
2017-10-02T11:46:32.743Z,6.10
2017-10-02T11:49:00.211Z,3.23
2017-10-02T11:51:27.696Z,2.97
2017-10-02T11:53:55.162Z,2.80
2017-10-02T11:56:22.681Z,4.67
2017-10-02T11:58:50.169Z,2.47
2017-10-02T12:01:17.702Z,2.47
2017-10-02T12:03:45.189Z,3.67
2017-10-02T12:06:12.671Z,3.27
2017-10-02T12:08:40.143Z,2.83
2017-10-02T12:11:07.631Z,3.67
2017-10-02T12:13:35.090Z,1.80
2017-10-02T12:16:02.567Z,5.93
2017-10-02T12:18:30.043Z,2.27
2017-10-02T12:20:58.138Z,2.60
2017-10-02T12:23:25.605Z,3.63
2017-10-02T12:25:53.082Z,6.40
2017-10-02T12:28:20.600Z,2.73
2017-10-02T12:30:48.068Z,2.60
2017-10-02T12:33:15.541Z,5.23
2017-10-02T12:35:43.003Z,2.27
2017-10-02T12:38:10.503Z,3.13
2017-10-02T12:40:37.965Z,3.23
2017-10-02T12:43:05.454Z,2.40
2017-10-02T12:45:32.941Z,5.07
2017-10-02T12:48:00.406Z,2.97
2017-10-02T12:50:27.964Z,2.80
2017-10-02T12:52:55.460Z,3.50
2017-10-02T12:55:22.940Z,2.13
2017-10-02T12:57:50.405Z,3.67
2017-10-02T13:00:17.869Z,3.70
2017-10-02T13:02:45.347Z,3.40
2017-10-02T13:05:12.978Z,3.00
2017-10-02T13:07:40.457Z,2.90
2017-10-02T13:10:07.921Z,4.10
2017-10-02T13:12:35.495Z,3.30
2017-10-02T13:15:02.996Z,5.07
2017-10-02T13:17:30.450Z,3.13
2017-10-02T13:19:57.922Z,4.77
2017-10-02T13:22:25.427Z,7.70
2017-10-02T13:24:52.990Z,4.53
2017-10-02T13:27:20.451Z,2.90
2017-10-02T13:29:48.448Z,2.93
2017-10-02T13:32:15.941Z,3.47
2017-10-02T13:34:43.393Z,4.93
2017-10-02T13:37:10.906Z,6.43
2017-10-02T13:39:38.432Z,3.17
2017-10-02T13:42:05.902Z,3.40
2017-10-02T13:44:33.379Z,2.67
2017-10-02T13:47:00.843Z,3.13
2017-10-02T13:49:28.455Z,4.30
2017-10-02T13:51:55.912Z,3.67
2017-10-02T13:54:23.418Z,3.20
2017-10-02T13:56:50.889Z,2.73
2017-10-02T13:59:18.345Z,4.73
2017-10-02T14:01:45.819Z,4.20
2017-10-02T14:04:13.286Z,3.43
2017-10-02T14:06:40.764Z,4.80
2017-10-02T14:09:08.219Z,7.07
2017-10-02T14:11:35.722Z,3.50
2017-10-02T14:14:03.192Z,3.97
2017-10-02T14:16:30.677Z,5.90
2017-10-02T14:18:58.142Z,5.53
2017-10-02T14:21:25.600Z,3.70
2017-10-02T14:23:53.086Z,5.23
2017-10-02T14:26:20.543Z,3.40
2017-10-02T14:28:48.105Z,2.60
2017-10-02T14:31:15.581Z,3.33
2017-10-02T14:33:43.055Z,2.73
2017-10-02T14:36:10.536Z,2.50
2017-10-02T14:38:38.016Z,2.20
2017-10-02T14:41:05.502Z,6.97
2017-10-02T14:43:32.970Z,1.70
2017-10-02T14:46:00.494Z,1.47
2017-10-02T14:48:27.982Z,1.90
2017-10-02T14:50:55.532Z,1.70
2017-10-02T14:53:23.016Z,1.53
2017-10-02T14:55:50.489Z,6.30
2017-10-02T14:58:18.626Z,2.87
2017-10-02T15:00:52.921Z,2.50
2017-10-02T15:12:10.113Z,2.83
2017-10-02T15:14:37.652Z,3.27
2017-10-02T15:17:05.157Z,2.33
2017-10-02T15:19:32.987Z,2.63
2017-10-02T15:22:00.449Z,2.13
2017-10-02T15:24:27.925Z,1.90
2017-10-02T15:26:55.420Z,2.50
2017-10-02T15:29:23.073Z,2.30
2017-10-02T15:31:50.578Z,2.33
2017-10-02T15:34:18.062Z,2.10
2017-10-02T15:36:45.530Z,2.20
2017-10-02T15:39:12.988Z,4.40
2017-10-02T15:41:40.711Z,1.70
2017-10-02T15:44:08.208Z,3.90
2017-10-02T15:46:35.678Z,9.53
2017-10-02T15:49:03.164Z,3.73
2017-10-02T15:51:30.642Z,2.03
2017-10-02T15:53:58.130Z,1.80
2017-10-02T15:56:25.602Z,2.33
2017-10-02T15:58:53.069Z,3.13
2017-10-02T16:01:20.543Z,2.53
2017-10-02T16:03:48.091Z,3.93
2017-10-02T16:06:15.560Z,3.07
2017-10-02T16:08:43.050Z,2.90
2017-10-02T16:11:10.525Z,2.37
2017-10-02T16:13:38.366Z,4.40
2017-10-02T16:16:05.923Z,2.23
2017-10-02T16:18:33.387Z,3.50
2017-10-02T16:21:00.860Z,2.33
2017-10-02T16:23:28.399Z,2.60
2017-10-02T16:25:56.169Z,6.00
2017-10-02T16:28:23.638Z,2.83
2017-10-02T16:30:51.108Z,8.70
2017-10-02T16:33:18.572Z,6.13
2017-10-02T16:35:46.054Z,2.03
2017-10-02T16:38:13.525Z,7.23
2017-10-02T16:40:41.006Z,4.87
2017-10-02T16:43:08.578Z,6.07
2017-10-02T16:45:36.062Z,4.27
2017-10-02T16:48:03.891Z,3.43
2017-10-02T16:50:31.351Z,2.10
2017-10-02T16:52:58.830Z,4.13
2017-10-02T16:55:26.302Z,3.93
2017-10-02T16:57:53.764Z,2.97
2017-10-02T17:00:21.234Z,4.43
2017-10-02T17:02:48.691Z,2.23
2017-10-02T17:05:16.173Z,3.00
2017-10-02T17:07:43.650Z,2.70
2017-10-02T17:10:11.408Z,2.27
2017-10-02T17:12:38.863Z,2.77
2017-10-02T17:15:06.320Z,3.80
2017-10-02T17:17:33.803Z,3.00
2017-10-02T17:20:01.263Z,4.53
2017-10-02T17:22:28.898Z,5.00
2017-10-02T17:24:56.386Z,3.07
2017-10-02T17:27:23.887Z,5.10
2017-10-02T17:29:51.383Z,5.00
2017-10-02T17:32:18.860Z,8.43
2017-10-02T17:34:46.336Z,4.60
2017-10-02T17:37:14.564Z,3.10
2017-10-02T17:39:42.031Z,5.90
2017-10-02T17:42:09.488Z,9.50
2017-10-02T17:44:36.959Z,3.50
2017-10-02T17:47:05.303Z,3.23
2017-10-02T17:49:32.819Z,4.33
2017-10-02T17:52:00.315Z,4.07
2017-10-02T17:54:27.886Z,5.93
2017-10-02T17:56:55.351Z,5.97
2017-10-02T17:59:22.819Z,3.70
2017-10-02T18:01:50.278Z,3.80
2017-10-02T18:04:17.743Z,4.70
2017-10-02T18:06:45.223Z,5.17
2017-10-02T18:09:12.676Z,5.20
2017-10-02T18:11:40.148Z,4.67
2017-10-02T18:14:07.616Z,4.20
2017-10-02T18:16:35.085Z,8.80
2017-10-02T18:19:02.549Z,5.27
2017-10-02T18:21:30.333Z,13.30
2017-10-02T18:23:57.801Z,3.50
2017-10-02T18:26:25.280Z,5.73
2017-10-02T18:28:52.779Z,5.53
2017-10-02T18:31:20.296Z,6.90
2017-10-02T18:33:47.795Z,9.20
2017-10-02T18:36:15.309Z,8.47
2017-10-02T18:38:42.772Z,6.00
2017-10-02T18:41:10.306Z,8.83
2017-10-02T18:43:38.182Z,13.10
2017-10-02T18:46:05.656Z,9.23
2017-10-02T18:48:33.998Z,10.23
2017-10-02T18:51:02.252Z,9.13
2017-10-02T18:53:29.752Z,18.20
2017-10-02T18:55:57.239Z,11.47
2017-10-02T18:58:24.750Z,16.60
2017-10-02T19:00:52.994Z,9.23
2017-10-02T19:03:20.451Z,27.13
2017-10-02T19:05:48.240Z,8.40
2017-10-02T19:08:15.756Z,10.50
2017-10-02T19:10:43.222Z,22.33
2017-10-02T19:13:10.716Z,16.37
2017-10-02T19:15:38.230Z,12.70
2017-10-02T19:18:05.727Z,19.03
2017-10-02T19:20:33.246Z,8.93
2017-10-02T19:23:00.748Z,11.93
2017-10-02T19:25:28.213Z,17.33
2017-10-02T19:27:55.693Z,11.00
2017-10-02T19:30:23.175Z,12.57
2017-10-02T19:32:50.646Z,14.70
2017-10-02T19:35:18.109Z,10.50
2017-10-02T19:37:45.581Z,16.57
2017-10-02T19:40:13.723Z,12.50
2017-10-02T19:42:41.538Z,17.07
2017-10-02T19:45:09.106Z,12.23
2017-10-02T19:47:36.569Z,11.27
2017-10-02T19:50:04.081Z,12.83
2017-10-02T19:52:31.537Z,14.53
2017-10-02T19:54:59.035Z,11.93
2017-10-02T19:57:26.490Z,16.50
2017-10-02T19:59:53.994Z,9.93
2017-10-02T20:02:21.456Z,11.53
2017-10-02T20:04:49.230Z,8.87
2017-10-02T20:07:16.823Z,9.20
2017-10-02T20:09:44.411Z,9.50
2017-10-02T20:12:11.895Z,12.73
2017-10-02T20:14:39.353Z,16.63
2017-10-02T20:17:06.827Z,17.50
2017-10-02T20:19:34.287Z,15.20
2017-10-02T20:22:01.766Z,13.13
2017-10-02T20:24:29.347Z,12.63
2017-10-02T20:26:56.849Z,11.37
2017-10-02T20:29:24.307Z,13.70
2017-10-02T20:31:52.130Z,17.63
2017-10-02T20:34:20.048Z,6.23
2017-10-02T20:36:47.541Z,5.43
2017-10-02T20:39:15.011Z,13.30
2017-10-02T20:41:42.475Z,14.03
2017-10-02T20:44:09.977Z,6.20
2017-10-02T20:46:37.442Z,14.50
2017-10-02T20:49:04.913Z,15.60
2017-10-02T20:51:32.495Z,11.23
2017-10-02T20:53:59.998Z,6.83
2017-10-02T20:56:27.512Z,10.37
2017-10-02T20:58:55.000Z,10.03
2017-10-02T21:01:22.477Z,10.50
2017-10-02T21:03:49.926Z,9.60
2017-10-02T21:06:17.781Z,14.80
2017-10-02T21:08:45.244Z,9.80
2017-10-02T21:11:12.713Z,8.93
2017-10-02T21:13:40.188Z,10.83
2017-10-02T21:16:07.708Z,12.20
2017-10-02T21:18:35.283Z,6.60
2017-10-02T21:21:02.803Z,13.13
2017-10-02T21:23:30.268Z,13.07
2017-10-02T21:25:57.720Z,11.47
2017-10-02T21:28:25.450Z,9.33
2017-10-02T21:30:52.917Z,19.00
2017-10-02T21:33:20.412Z,13.27
2017-10-02T21:35:47.894Z,17.10
2017-10-02T21:38:15.373Z,14.63
2017-10-02T21:40:42.841Z,12.07
2017-10-02T21:43:10.308Z,10.47
2017-10-02T21:45:37.824Z,8.03
2017-10-02T21:48:05.286Z,14.97
2017-10-02T21:50:32.754Z,17.00
2017-10-02T21:53:00.222Z,12.97
2017-10-02T21:55:28.012Z,12.50
2017-10-02T21:57:55.502Z,14.60
2017-10-02T22:00:23.021Z,13.73
2017-10-02T22:02:50.530Z,12.67
2017-10-02T22:05:17.983Z,13.13
2017-10-02T22:07:45.455Z,19.67
2017-10-02T22:10:12.926Z,9.57
2017-10-02T22:12:40.406Z,12.77
2017-10-02T22:15:07.876Z,11.00
2017-10-02T22:17:35.365Z,15.60
2017-10-02T22:20:02.881Z,9.93
2017-10-02T22:22:30.712Z,11.03
2017-10-02T22:24:58.722Z,9.60
2017-10-02T22:27:26.195Z,17.47
2017-10-02T22:29:53.695Z,13.33
2017-10-02T22:32:21.203Z,14.70
2017-10-02T22:34:48.686Z,12.80
2017-10-02T22:37:16.200Z,12.90
2017-10-02T22:39:43.969Z,20.67
2017-10-02T22:42:11.435Z,16.50
2017-10-02T22:44:38.907Z,16.47
2017-10-02T22:47:06.458Z,15.57
2017-10-02T22:49:33.909Z,14.40
2017-10-02T22:52:01.367Z,17.50
2017-10-02T22:54:28.916Z,16.47
2017-10-02T22:56:56.424Z,18.63
2017-10-02T22:59:23.939Z,29.07
2017-10-02T23:01:51.699Z,14.57
2017-10-02T23:04:19.174Z,13.43
2017-10-02T23:06:46.716Z,13.37
2017-10-02T23:09:14.266Z,12.40
2017-10-02T23:11:41.727Z,9.60
2017-10-02T23:14:09.200Z,14.47
2017-10-02T23:16:36.831Z,7.77
2017-10-02T23:19:04.614Z,17.90
2017-10-02T23:21:32.079Z,14.27
2017-10-02T23:23:59.542Z,13.63
2017-10-02T23:26:27.020Z,15.43
2017-10-02T23:28:54.477Z,12.97
2017-10-02T23:31:21.953Z,13.93
2017-10-02T23:33:49.454Z,24.73
2017-10-02T23:36:16.935Z,14.73
2017-10-02T23:38:44.417Z,10.47
2017-10-02T23:41:12.243Z,13.70
2017-10-02T23:43:39.723Z,21.57
2017-10-02T23:46:07.213Z,11.33
2017-10-02T23:48:34.704Z,24.90
2017-10-02T23:51:02.170Z,18.40
2017-10-02T23:53:29.635Z,17.40
2017-10-02T23:55:57.128Z,8.20
2017-10-02T23:58:24.600Z,10.93
